Time;durP1;ratioP1;P1;durP2;ratioP2;P2;SDS_P1;SDS_P2;PMS_P1;PMS_P2;Temp;Humidity;BMP_temperature;BMP_pressure;BME280_temperature;BME280_humidity;BME280_pressure;Samples;Min_cycle;Max_cycle;Signal;HPM_P1;HPM_P2
2022/06/27 00:00:52;;;;;;;4.90;4.70;;;;;;;-143.83;100.00;62900.06;5033159;28;20052;-61
2022/06/27 00:03:18;;;;;;;5.20;5.00;;;;;;;-143.83;100.00;62900.06;5032795;28;20148;-59
2022/06/27 00:05:43;;;;;;;4.90;4.70;;;;;;;-143.83;100.00;62900.06;5024801;28;20033;-61
2022/06/27 00:08:09;;;;;;;4.85;4.65;;;;;;;-143.83;100.00;62900.06;5031395;28;20496;-59
2022/06/27 00:10:34;;;;;;;5.00;4.80;;;;;;;-143.83;100.00;62900.06;5026607;28;20029;-60
2022/06/27 00:13:00;;;;;;;5.10;4.90;;;;;;;-143.83;100.00;62900.06;5032805;28;20029;-59
2022/06/27 00:15:26;;;;;;;4.90;4.70;;;;;;;-143.83;100.00;62900.06;5031639;28;20484;-59
2022/06/27 00:17:51;;;;;;;4.90;4.70;;;;;;;-143.83;100.00;62900.06;5033016;28;20040;-60
2022/06/27 00:20:17;;;;;;;5.00;4.80;;;;;;;-143.83;100.00;62900.06;5032546;28;20056;-60
2022/06/27 00:22:42;;;;;;;4.93;4.72;;;;;;;-143.83;100.00;62900.06;5032600;28;20025;-59
2022/06/27 00:25:09;;;;;;;5.10;4.90;;;;;;;-143.83;100.00;62900.06;5045340;28;20029;-60
2022/06/27 00:27:35;;;;;;;5.13;4.93;;;;;;;-143.83;100.00;62900.06;5027856;28;20041;-60
2022/06/27 00:30:01;;;;;;;5.00;4.80;;;;;;;-143.83;100.00;62900.06;5032333;28;20483;-62
2022/06/27 00:32:27;;;;;;;5.00;4.80;;;;;;;-143.83;100.00;62900.06;5018812;28;20153;-59
2022/06/27 00:34:53;;;;;;;4.95;4.75;;;;;;;-143.83;100.00;62900.06;5032282;28;20057;-59
2022/06/27 00:37:19;;;;;;;5.03;4.82;;;;;;;-143.83;100.00;62900.06;5032131;28;20033;-59
2022/06/27 00:39:45;;;;;;;4.90;4.70;;;;;;;-143.83;100.00;62900.06;5032218;28;20108;-60
2022/06/27 00:42:10;;;;;;;5.10;4.90;;;;;;;-143.83;100.00;62900.06;5033420;28;20113;-59
2022/06/27 00:44:39;;;;;;;4.95;4.75;;;;;;;-143.83;100.00;62900.06;5030895;28;20025;-60
2022/06/27 00:47:06;;;;;;;5.07;4.88;;;;;;;-143.83;100.00;62900.06;5020873;28;20123;-60
2022/06/27 00:49:33;;;;;;;4.90;4.70;;;;;;;-143.83;100.00;62900.06;5029960;28;20076;-60
2022/06/27 00:51:59;;;;;;;4.97;4.78;;;;;;;-143.83;100.00;62900.06;5022899;28;20385;-60
2022/06/27 00:54:25;;;;;;;4.90;4.70;;;;;;;-143.83;100.00;62900.06;5031850;28;20027;-59
2022/06/27 00:56:53;;;;;;;4.95;4.75;;;;;;;-143.83;100.00;62900.06;5031945;28;20026;-59
2022/06/27 00:59:19;;;;;;;4.90;4.70;;;;;;;-143.83;100.00;62900.06;5031890;28;20021;-60
2022/06/27 01:01:45;;;;;;;4.78;4.57;;;;;;;-143.83;100.00;62900.06;5029448;28;20405;-60
2022/06/27 01:04:10;;;;;;;4.93;4.72;;;;;;;-143.83;100.00;62900.06;5032101;28;20024;-60
2022/06/27 01:06:36;;;;;;;4.90;4.70;;;;;;;-143.83;100.00;62900.06;5020450;28;20409;-60
2022/06/27 01:09:03;;;;;;;4.90;4.70;;;;;;;-143.83;100.00;62900.06;5031153;28;20029;-59
2022/06/27 01:11:28;;;;;;;5.10;4.90;;;;;;;-143.83;100.00;62900.06;5031855;28;20028;-60
2022/06/27 01:13:54;;;;;;;4.80;4.60;;;;;;;-143.83;100.00;62900.06;5031709;28;20041;-60
2022/06/27 01:16:20;;;;;;;5.00;4.80;;;;;;;-143.83;100.00;62900.06;5038147;28;20041;-61
2022/06/27 01:18:46;;;;;;;4.90;4.70;;;;;;;-143.83;100.00;62900.06;5030860;28;20029;-59
2022/06/27 01:21:19;;;;;;;5.00;4.80;;;;;;;-143.83;100.00;62900.06;5031441;28;20055;-60
2022/06/27 01:23:45;;;;;;;4.88;4.68;;;;;;;-143.83;100.00;62900.06;5030427;28;20519;-61
2022/06/27 01:26:11;;;;;;;4.90;4.70;;;;;;;-143.83;100.00;62900.06;5031683;28;20037;-60
2022/06/27 01:28:36;;;;;;;4.88;4.68;;;;;;;-143.83;100.00;62900.06;5031302;28;20523;-61
2022/06/27 01:31:02;;;;;;;4.80;4.60;;;;;;;-143.83;100.00;62900.06;5030793;28;20039;-61
2022/06/27 01:33:28;;;;;;;4.82;4.63;;;;;;;-143.83;100.00;62900.06;5030718;28;20108;-60
2022/06/27 01:36:41;;;;;;;4.90;4.70;;;;;;;-143.83;100.00;62900.06;5028187;28;20065;-60
2022/06/27 01:38:39;;;;;;;5.00;4.80;;;;;;;-143.83;100.00;62900.06;5027725;28;20216;-59
2022/06/27 01:41:04;;;;;;;4.95;4.75;;;;;;;-143.83;100.00;62900.06;5031302;28;20112;-61
2022/06/27 01:43:30;;;;;;;5.00;4.80;;;;;;;-143.83;100.00;62900.06;5031109;28;20302;-61
2022/06/27 01:45:56;;;;;;;4.90;4.70;;;;;;;-143.83;100.00;62900.06;5020378;28;20467;-60
2022/06/27 01:48:22;;;;;;;4.85;4.65;;;;;;;-143.83;100.00;62900.06;5028664;28;20536;-60
2022/06/27 01:50:50;;;;;;;4.78;4.57;;;;;;;-143.83;100.00;62900.06;5018710;28;20065;-60
2022/06/27 01:53:17;;;;;;;4.70;4.50;;;;;;;-143.83;100.00;62900.06;5026307;28;20034;-61
2022/06/27 01:55:43;;;;;;;5.00;4.80;;;;;;;-143.83;100.00;62900.06;5030104;28;20087;-60
2022/06/27 01:58:09;;;;;;;4.80;4.60;;;;;;;-143.83;100.00;62900.06;5030854;28;20469;-61
2022/06/27 02:00:35;;;;;;;4.75;4.55;;;;;;;-143.83;100.00;62900.06;5030276;28;20025;-60
2022/06/27 02:03:00;;;;;;;4.88;4.68;;;;;;;-143.83;100.00;62900.06;5030250;28;20095;-61
2022/06/27 02:05:26;;;;;;;4.88;4.68;;;;;;;-143.83;100.00;62900.06;5023170;28;20579;-60
2022/06/27 02:07:55;;;;;;;4.72;4.53;;;;;;;-143.83;100.00;62900.06;5027801;28;20358;-59
2022/06/27 02:10:20;;;;;;;4.85;4.65;;;;;;;-143.83;100.00;62900.06;5025862;28;20037;-60
2022/06/27 02:12:46;;;;;;;4.78;4.57;;;;;;;-143.83;100.00;62900.06;5029524;28;20029;-61
2022/06/27 02:15:11;;;;;;;4.88;4.68;;;;;;;-143.83;100.00;62900.06;5030617;28;20033;-60
2022/06/27 02:17:37;;;;;;;4.95;4.75;;;;;;;-143.83;100.00;62900.06;5030703;28;20025;-61
2022/06/27 02:20:05;;;;;;;4.85;4.65;;;;;;;-143.83;100.00;62900.06;5030831;28;20037;-60
2022/06/27 02:22:30;;;;;;;4.72;4.53;;;;;;;-143.83;100.00;62900.06;5033000;28;20029;-60
2022/06/27 02:24:56;;;;;;;4.80;4.60;;;;;;;-143.83;100.00;62900.06;5034382;28;20040;-60
2022/06/27 02:27:23;;;;;;;4.80;4.60;;;;;;;-143.83;100.00;62900.06;5030013;28;20021;-59
2022/06/27 02:29:48;;;;;;;4.68;4.47;;;;;;;-143.83;100.00;62900.06;5029356;28;20033;-59
2022/06/27 02:32:14;;;;;;;4.78;4.57;;;;;;;-143.83;100.00;62900.06;5030408;28;20025;-61
2022/06/27 02:34:41;;;;;;;4.70;4.50;;;;;;;-143.83;100.00;62900.06;5030390;28;20065;-62
2022/06/27 02:37:09;;;;;;;4.68;4.47;;;;;;;-143.83;100.00;62900.06;5030005;28;20048;-60
2022/06/27 02:39:38;;;;;;;4.80;4.60;;;;;;;-143.83;100.00;62900.06;5030210;28;20091;-60
2022/06/27 02:42:07;;;;;;;4.80;4.60;;;;;;;-143.83;100.00;62900.06;5030020;28;20041;-61
2022/06/27 02:44:34;;;;;;;4.90;4.70;;;;;;;-143.83;100.00;62900.06;5023307;28;20752;-61
2022/06/27 02:46:59;;;;;;;4.85;4.65;;;;;;;-143.83;100.00;62900.06;5029029;28;20481;-60
2022/06/27 02:49:25;;;;;;;4.90;4.70;;;;;;;-143.83;100.00;62900.06;5028002;28;20064;-61
2022/06/27 02:52:16;;;;;;;4.90;4.70;;;;;;;-143.83;100.00;62900.06;5029395;28;20029;-60
2022/06/27 02:54:48;;;;;;;4.80;4.60;;;;;;;-143.83;100.00;62900.06;5029935;28;20029;-60
2022/06/27 02:57:25;;;;;;;4.90;4.70;;;;;;;-143.83;100.00;62900.06;5038667;28;20032;-60
2022/06/27 02:59:54;;;;;;;5.03;4.82;;;;;;;-143.83;100.00;62900.06;5032338;28;20104;-60
2022/06/27 03:02:21;;;;;;;5.10;4.90;;;;;;;-143.83;100.00;62900.06;5029782;28;20040;-60
2022/06/27 03:04:47;;;;;;;5.00;4.80;;;;;;;-143.83;100.00;62900.06;5020722;28;20108;-61
2022/06/27 03:07:12;;;;;;;5.05;4.85;;;;;;;-143.83;100.00;62900.06;5018721;28;20033;-61
2022/06/27 03:09:38;;;;;;;5.25;5.05;;;;;;;-143.83;100.00;62900.06;5030011;28;20021;-61
2022/06/27 03:12:03;;;;;;;5.20;5.00;;;;;;;-143.83;100.00;62900.06;5030207;28;20038;-61
2022/06/27 03:14:29;;;;;;;5.40;5.20;;;;;;;-143.83;100.00;62900.06;5044307;28;20481;-62
2022/06/27 03:16:54;;;;;;;5.60;5.40;;;;;;;-143.83;100.00;62900.06;5035242;28;20027;-60
2022/06/27 03:19:20;;;;;;;5.50;5.30;;;;;;;-143.83;100.00;62900.06;5030882;28;20030;-59
2022/06/27 03:21:46;;;;;;;5.60;5.40;;;;;;;-143.83;100.00;62900.06;5033017;28;20053;-60
2022/06/27 03:24:11;;;;;;;5.60;5.40;;;;;;;-143.83;100.00;62900.06;5021797;28;20040;-61
2022/06/27 03:26:37;;;;;;;5.55;5.35;;;;;;;-143.83;100.00;62900.06;5033742;28;20044;-61
2022/06/27 03:29:03;;;;;;;5.72;5.53;;;;;;;-143.83;100.00;62900.06;5021518;28;20029;-59
2022/06/27 03:31:29;;;;;;;5.63;5.43;;;;;;;-143.83;100.00;62900.06;5034780;28;20497;-60
2022/06/27 03:33:55;;;;;;;5.70;5.50;;;;;;;-143.83;100.00;62900.06;5029761;28;20080;-60
2022/06/27 03:36:21;;;;;;;5.80;5.60;;;;;;;-143.83;100.00;62900.06;5033185;28;20029;-60
2022/06/27 03:38:46;;;;;;;5.70;5.50;;;;;;;-143.83;100.00;62900.06;5031689;28;20029;-61
2022/06/27 03:41:12;;;;;;;5.78;5.57;;;;;;;-143.83;100.00;62900.06;5030726;28;20040;-60
2022/06/27 03:43:37;;;;;;;5.78;5.57;;;;;;;-143.83;100.00;62900.06;5022268;28;20037;-60
2022/06/27 03:46:03;;;;;;;5.80;5.60;;;;;;;-143.83;100.00;62900.06;5032208;28;20032;-61
2022/06/27 03:51:12;;;;;;;5.90;5.70;;;;;;;-143.83;100.00;62900.06;5024963;28;20523;-61
2022/06/27 03:53:38;;;;;;;5.80;5.60;;;;;;;-143.83;100.00;62900.06;5020458;28;20116;-61
2022/06/27 03:56:03;;;;;;;5.70;5.50;;;;;;;-143.83;100.00;62900.06;5032506;28;20033;-61
2022/06/27 03:58:29;;;;;;;5.70;5.50;;;;;;;-143.83;100.00;62900.06;5032308;28;20455;-62
2022/06/27 04:00:55;;;;;;;6.03;5.82;;;;;;;-143.83;100.00;62900.06;5032938;28;20032;-61
2022/06/27 04:03:21;;;;;;;5.80;5.60;;;;;;;-143.83;100.00;62900.06;5032536;28;20033;-61
2022/06/27 04:05:47;;;;;;;5.80;5.60;;;;;;;-143.83;100.00;62900.06;5039316;28;20393;-61
2022/06/27 04:08:12;;;;;;;5.80;5.60;;;;;;;-143.83;100.00;62900.06;5026707;28;20025;-61
2022/06/27 04:10:38;;;;;;;5.82;5.63;;;;;;;-143.83;100.00;62900.06;5028169;28;20032;-60
2022/06/27 04:13:04;;;;;;;5.80;5.60;;;;;;;-143.83;100.00;62900.06;5030476;28;20029;-61
2022/06/27 04:15:30;;;;;;;6.03;5.82;;;;;;;-143.83;100.00;62900.06;5034204;28;20071;-61
2022/06/27 04:17:55;;;;;;;5.85;5.65;;;;;;;-143.83;100.00;62900.06;5039554;28;20017;-60
2022/06/27 04:20:21;;;;;;;5.90;5.70;;;;;;;-143.83;100.00;62900.06;5031367;28;20469;-61
2022/06/27 04:22:46;;;;;;;5.90;5.70;;;;;;;-143.83;100.00;62900.06;5030716;28;20104;-61
2022/06/27 04:25:12;;;;;;;5.88;5.68;;;;;;;-143.83;100.00;62900.06;5035513;28;20052;-61
2022/06/27 04:27:37;;;;;;;5.90;5.70;;;;;;;-143.83;100.00;62900.06;5016204;28;20367;-60
2022/06/27 04:30:04;;;;;;;6.00;5.80;;;;;;;-143.83;100.00;62900.06;5028558;28;20025;-60
2022/06/27 04:32:29;;;;;;;5.95;5.75;;;;;;;-143.83;100.00;62900.06;5030759;28;20048;-61
2022/06/27 04:34:55;;;;;;;5.97;5.78;;;;;;;-143.83;100.00;62900.06;5036603;28;20486;-61
2022/06/27 04:37:21;;;;;;;6.05;5.85;;;;;;;-143.83;100.00;62900.06;5032662;28;20370;-62
2022/06/27 04:39:47;;;;;;;5.80;5.60;;;;;;;-143.83;100.00;62900.06;5033308;28;20109;-61
2022/06/27 04:42:13;;;;;;;6.13;5.93;;;;;;;-143.83;100.00;62900.06;5017205;28;20032;-61
2022/06/27 04:44:40;;;;;;;6.10;5.90;;;;;;;-143.83;100.00;62900.06;5031890;28;20037;-61
2022/06/27 04:47:08;;;;;;;5.95;5.75;;;;;;;-143.83;100.00;62900.06;5021559;28;20556;-61
2022/06/27 04:49:38;;;;;;;6.10;5.90;;;;;;;-143.83;100.00;62900.06;5031763;28;20139;-61
2022/06/27 04:52:07;;;;;;;6.05;5.85;;;;;;;-143.83;100.00;62900.06;5028488;28;20143;-61
2022/06/27 04:54:34;;;;;;;6.07;5.88;;;;;;;-143.83;100.00;62900.06;5031592;28;20045;-61
2022/06/27 04:56:59;;;;;;;5.95;5.75;;;;;;;-143.83;100.00;62900.06;5032346;28;20025;-59
2022/06/27 04:59:25;;;;;;;6.00;5.80;;;;;;;-143.83;100.00;62900.06;5031777;28;20037;-60
2022/06/27 05:01:50;;;;;;;6.10;5.90;;;;;;;-143.83;100.00;62900.06;5027109;28;20107;-60
2022/06/27 05:04:20;;;;;;;6.40;6.10;;;;;;;-143.83;100.00;62900.06;5031056;28;20025;-62
2022/06/27 05:06:47;;;;;;;6.20;6.00;;;;;;;-143.83;100.00;62900.06;5026525;28;20435;-62
2022/06/27 05:09:13;;;;;;;6.20;6.00;;;;;;;-143.83;100.00;62900.06;5036475;28;20029;-62
2022/06/27 05:11:39;;;;;;;6.65;6.35;;;;;;;-143.83;100.00;62900.06;5022148;28;20034;-62
2022/06/27 05:14:05;;;;;;;6.53;6.22;;;;;;;-143.83;100.00;62900.06;5029693;28;20032;-61
2022/06/27 05:16:31;;;;;;;6.60;6.30;;;;;;;-143.83;100.00;62900.06;5037310;28;20040;-61
2022/06/27 05:18:56;;;;;;;6.55;6.25;;;;;;;-143.83;100.00;62900.06;5022548;28;20033;-63
2022/06/27 05:21:22;;;;;;;6.20;6.00;;;;;;;-143.83;100.00;62900.06;5030629;28;20031;-62
2022/06/27 05:23:50;;;;;;;6.10;5.90;;;;;;;-143.83;100.00;62900.06;5028503;28;20036;-62
2022/06/27 05:26:15;;;;;;;6.07;5.85;;;;;;;-143.83;100.00;62900.06;5032178;28;20499;-62
2022/06/27 05:28:42;;;;;;;6.10;5.90;;;;;;;-143.83;100.00;62900.06;5032907;28;20030;-63
2022/06/27 05:31:07;;;;;;;6.50;6.20;;;;;;;-143.83;100.00;62900.06;5028571;28;20029;-62
2022/06/27 05:33:33;;;;;;;5.85;5.65;;;;;;;-143.83;100.00;62900.06;5024816;28;20033;-62
2022/06/27 05:36:00;;;;;;;5.95;5.75;;;;;;;-143.83;100.00;62900.06;5029630;28;20581;-61
2022/06/27 05:38:25;;;;;;;6.07;5.88;;;;;;;-143.83;100.00;62900.06;5028001;28;20040;-62
2022/06/27 05:40:51;;;;;;;6.40;6.10;;;;;;;-143.83;100.00;62900.06;5025407;28;20029;-63
2022/06/27 05:43:17;;;;;;;6.10;5.90;;;;;;;-143.83;100.00;62900.06;5019174;28;20025;-63
2022/06/27 05:45:42;;;;;;;6.40;6.10;;;;;;;-143.83;100.00;62900.06;5031144;28;20033;-62
2022/06/27 05:48:08;;;;;;;6.15;5.95;;;;;;;-143.83;100.00;62900.06;5030048;28;20033;-62
2022/06/27 05:50:34;;;;;;;6.20;6.00;;;;;;;-143.83;100.00;62900.06;5032259;28;20064;-62
2022/06/27 05:53:01;;;;;;;6.45;6.15;;;;;;;-143.83;100.00;62900.06;5032238;28;20083;-62
2022/06/27 05:55:28;;;;;;;5.95;5.75;;;;;;;-143.83;100.00;62900.06;5029607;28;20480;-62
2022/06/27 05:57:56;;;;;;;5.78;5.57;;;;;;;-143.83;100.00;62900.06;5030085;28;20840;-62
2022/06/27 06:00:23;;;;;;;5.68;5.47;;;;;;;-143.83;100.00;62900.06;5029387;28;20699;-62
2022/06/27 06:02:49;;;;;;;5.80;5.60;;;;;;;-143.83;100.00;62900.06;5031840;28;20443;-61
2022/06/27 06:05:15;;;;;;;5.50;5.30;;;;;;;-143.83;100.00;62900.06;5039712;28;20033;-62
2022/06/27 06:07:43;;;;;;;5.88;5.68;;;;;;;-143.83;100.00;62900.06;5032113;28;20477;-62
2022/06/27 06:10:10;;;;;;;6.05;5.85;;;;;;;-143.83;100.00;62900.06;5031273;28;20374;-62
2022/06/27 06:12:36;;;;;;;5.95;5.75;;;;;;;-143.83;100.00;62900.06;5022805;28;20021;-62
2022/06/27 06:15:04;;;;;;;6.22;6.00;;;;;;;-143.83;100.00;62900.06;5031807;28;20025;-63
2022/06/27 06:17:33;;;;;;;5.65;5.45;;;;;;;-143.83;100.00;62900.06;5025984;28;20500;-62
2022/06/27 06:19:59;;;;;;;5.95;5.75;;;;;;;-143.83;100.00;62900.06;5023038;28;20088;-62
2022/06/27 06:22:25;;;;;;;5.88;5.68;;;;;;;-143.83;100.00;62900.06;5018990;28;20030;-62
2022/06/27 06:24:51;;;;;;;6.00;5.80;;;;;;;-143.83;100.00;62900.06;5026309;28;20108;-62
2022/06/27 06:27:18;;;;;;;5.75;5.55;;;;;;;-143.83;100.00;62900.06;5029150;28;20029;-63
2022/06/27 06:29:44;;;;;;;6.10;5.90;;;;;;;-143.83;100.00;62900.06;5028061;28;20104;-62
2022/06/27 06:32:10;;;;;;;6.25;6.03;;;;;;;-143.83;100.00;62900.06;5029377;28;20106;-61
2022/06/27 06:34:37;;;;;;;6.15;5.95;;;;;;;-143.83;100.00;62900.06;5028998;28;20520;-61
2022/06/27 06:37:03;;;;;;;6.32;6.05;;;;;;;-143.83;100.00;62900.06;5029701;28;20022;-62
2022/06/27 06:39:29;;;;;;;6.10;5.90;;;;;;;-143.83;100.00;62900.06;5031600;28;20021;-62
2022/06/27 06:41:54;;;;;;;6.60;6.30;;;;;;;-143.83;100.00;62900.06;5031327;28;20029;-62
2022/06/27 06:44:22;;;;;;;6.25;6.03;;;;;;;-143.83;100.00;62900.06;5030008;28;20028;-62
2022/06/27 06:46:48;;;;;;;6.40;6.10;;;;;;;-143.83;100.00;62900.06;5030427;28;20040;-62
2022/06/27 06:49:13;;;;;;;6.60;6.30;;;;;;;-143.83;100.00;62900.06;5031223;28;20528;-62
2022/06/27 06:51:41;;;;;;;6.53;6.22;;;;;;;-143.83;100.00;62900.06;5031190;28;20034;-62
2022/06/27 06:54:08;;;;;;;6.60;6.30;;;;;;;-143.83;100.00;62900.06;5031296;28;20038;-62
2022/06/27 06:56:34;;;;;;;6.50;6.20;;;;;;;-143.83;100.00;62900.06;5029094;28;20108;-62
2022/06/27 06:59:01;;;;;;;6.20;6.00;;;;;;;-143.83;100.00;62900.06;5026663;28;20080;-62
2022/06/27 07:01:27;;;;;;;6.38;6.07;;;;;;;-143.83;100.00;62900.06;5021637;28;20132;-63
2022/06/27 07:03:54;;;;;;;6.10;5.90;;;;;;;-143.83;100.00;62900.06;5025575;28;20021;-63
2022/06/27 07:06:25;;;;;;;6.28;6.03;;;;;;;-143.83;100.00;62900.06;5030871;28;20037;-62
2022/06/27 07:08:57;;;;;;;6.10;5.90;;;;;;;-143.83;100.00;62900.06;5031458;28;20037;-62
2022/06/27 07:11:28;;;;;;;6.00;5.80;;;;;;;-143.83;100.00;62900.06;5030880;28;20026;-62
2022/06/27 07:13:55;;;;;;;6.60;6.30;;;;;;;-143.83;100.00;62900.06;5018818;28;20063;-62
2022/06/27 07:16:21;;;;;;;6.40;6.10;;;;;;;-143.83;100.00;62900.06;5031497;28;20025;-63
2022/06/27 07:18:48;;;;;;;6.50;6.20;;;;;;;-143.83;100.00;62900.06;5022084;28;20385;-62
2022/06/27 07:21:21;;;;;;;6.50;6.20;;;;;;;-143.83;100.00;62900.06;5031245;28;20033;-62
2022/06/27 07:23:48;;;;;;;6.43;6.13;;;;;;;-143.83;100.00;62900.06;5030100;28;20091;-63
2022/06/27 07:26:17;;;;;;;6.40;6.10;;;;;;;-143.83;100.00;62900.06;5031184;28;20109;-62
2022/06/27 07:28:43;;;;;;;6.47;6.18;;;;;;;-143.83;100.00;62900.06;5031042;28;20032;-62
2022/06/27 07:31:11;;;;;;;6.38;6.10;;;;;;;-143.83;100.00;62900.06;5031212;28;20037;-61
2022/06/27 07:33:45;;;;;;;6.10;5.90;;;;;;;-143.83;100.00;62900.06;5030971;28;20053;-62
2022/06/27 07:36:14;;;;;;;6.45;6.15;;;;;;;-143.83;100.00;62900.06;5030338;28;20080;-61
2022/06/27 07:38:41;;;;;;;6.20;6.00;;;;;;;-143.83;100.00;62900.06;5031244;28;20026;-63
2022/06/27 07:41:09;;;;;;;6.10;5.90;;;;;;;-143.83;100.00;62900.06;5031046;28;20079;-61
2022/06/27 07:43:35;;;;;;;6.10;5.90;;;;;;;-143.83;100.00;62900.06;5031179;28;20025;-63
2022/06/27 07:46:02;;;;;;;6.03;5.82;;;;;;;-143.83;100.00;62900.06;5030986;28;20068;-62
2022/06/27 07:48:28;;;;;;;6.07;5.88;;;;;;;-143.83;100.00;62900.06;5030823;28;20470;-62
2022/06/27 07:50:56;;;;;;;5.80;5.60;;;;;;;-143.83;100.00;62900.06;5030553;28;20057;-62
2022/06/27 07:53:22;;;;;;;5.85;5.65;;;;;;;-143.83;100.00;62900.06;5030232;28;20381;-61
2022/06/27 07:55:51;;;;;;;5.88;5.68;;;;;;;-143.83;100.00;62900.06;5030753;28;20105;-62
2022/06/27 07:58:19;;;;;;;5.80;5.60;;;;;;;-143.83;100.00;62900.06;5030855;28;20025;-63
2022/06/27 08:00:48;;;;;;;5.90;5.70;;;;;;;-143.83;100.00;62900.06;5033075;28;20079;-63
2022/06/27 08:06:00;;;;;;;5.93;5.72;;;;;;;-143.83;100.00;62900.06;5034340;28;20102;-62
2022/06/27 08:08:27;;;;;;;5.90;5.70;;;;;;;-143.83;100.00;62900.06;5034040;28;20473;-61
2022/06/27 08:10:54;;;;;;;5.70;5.50;;;;;;;-143.83;100.00;62900.06;5033014;28;20029;-64
2022/06/27 08:13:20;;;;;;;5.60;5.40;;;;;;;-143.83;100.00;62900.06;5034180;28;20151;-61
2022/06/27 08:15:47;;;;;;;5.72;5.53;;;;;;;-143.83;100.00;62900.06;5033687;28;20034;-61
2022/06/27 08:18:17;;;;;;;5.90;5.70;;;;;;;-143.83;100.00;62900.06;5033761;28;20455;-61
2022/06/27 08:20:45;;;;;;;5.63;5.43;;;;;;;-143.83;100.00;62900.06;5028274;28;20123;-63
2022/06/27 08:23:12;;;;;;;5.72;5.53;;;;;;;-143.83;100.00;62900.06;5034171;28;20022;-62
2022/06/27 08:25:38;;;;;;;5.85;5.65;;;;;;;-143.83;100.00;62900.06;5033663;28;20452;-61
2022/06/27 08:28:05;;;;;;;5.65;5.45;;;;;;;-143.83;100.00;62900.06;5032743;28;20121;-61
2022/06/27 08:30:31;;;;;;;5.53;5.32;;;;;;;-143.83;100.00;62900.06;5033986;28;20053;-62
2022/06/27 08:32:59;;;;;;;5.55;5.35;;;;;;;-143.83;100.00;62900.06;5033670;28;20036;-62
2022/06/27 08:35:26;;;;;;;5.63;5.43;;;;;;;-143.83;100.00;62900.06;5033963;28;20122;-63
2022/06/27 08:37:52;;;;;;;5.35;5.15;;;;;;;-143.83;100.00;62900.06;5033748;28;20105;-63
2022/06/27 08:40:19;;;;;;;5.68;5.47;;;;;;;-143.83;100.00;62900.06;5033909;28;20026;-63
2022/06/27 08:42:46;;;;;;;5.70;5.50;;;;;;;-143.83;100.00;62900.06;5033739;28;20025;-63
2022/06/27 08:45:15;;;;;;;5.55;5.35;;;;;;;-143.83;100.00;62900.06;5032631;28;20060;-63
2022/06/27 08:47:41;;;;;;;5.90;5.70;;;;;;;-143.83;100.00;62900.06;5033808;28;20030;-61
2022/06/27 08:50:11;;;;;;;5.70;5.50;;;;;;;-143.83;100.00;62900.06;5033489;28;20136;-61
2022/06/27 08:52:41;;;;;;;5.60;5.40;;;;;;;-143.83;100.00;62900.06;5030956;28;20117;-62
2022/06/27 08:55:10;;;;;;;5.53;5.32;;;;;;;-143.83;100.00;62900.06;5033539;28;20053;-60
2022/06/27 08:57:36;;;;;;;5.55;5.35;;;;;;;-143.83;100.00;62900.06;5033350;28;20025;-61
2022/06/27 09:00:06;;;;;;;5.50;5.30;;;;;;;-143.83;100.00;62900.06;5031893;28;20057;-62
2022/06/27 09:02:41;;;;;;;5.53;5.32;;;;;;;-143.83;100.00;62900.06;5030241;28;20032;-62
2022/06/27 09:05:15;;;;;;;5.50;5.30;;;;;;;-143.83;100.00;62900.06;5033159;28;20032;-63
2022/06/27 09:07:46;;;;;;;;;;;;;;;-143.83;100.00;62900.06;5033302;28;20036;-62
2022/06/27 09:10:36;;;;;;;5.50;5.30;;;;;;;-143.83;100.00;62900.06;5032975;28;19909;-62
2022/06/27 09:13:06;;;;;;;5.50;5.30;;;;;;;-143.83;100.00;62900.06;5033114;28;20053;-63
2022/06/27 09:15:37;;;;;;;5.32;5.13;;;;;;;-143.83;100.00;62900.06;5032768;28;20017;-61
2022/06/27 09:18:06;;;;;;;5.50;5.30;;;;;;;-143.83;100.00;62900.06;5026156;28;20446;-62
2022/06/27 09:20:52;;;;;;;5.43;5.22;;;;;;;-143.83;100.00;62900.06;5032953;28;20033;-62
2022/06/27 09:23:31;;;;;;;5.35;5.15;;;;;;;-143.83;100.00;62900.06;5032952;28;20028;-62
2022/06/27 09:26:02;;;;;;;5.70;5.50;;;;;;;-143.83;100.00;62900.06;5033240;28;20041;-62
2022/06/27 09:29:00;;;;;;;5.70;5.50;;;;;;;-143.83;100.00;62900.06;5033000;28;20021;-62
2022/06/27 09:31:28;;;;;;;5.55;5.35;;;;;;;-143.83;100.00;62900.06;5032723;28;20040;-63
2022/06/27 09:34:18;;;;;;;5.82;5.63;;;;;;;-143.83;100.00;62900.06;5032372;28;20076;-62
2022/06/27 09:36:47;;;;;;;5.60;5.40;;;;;;;-143.83;100.00;62900.06;5031675;28;20033;-61
2022/06/27 09:39:30;;;;;;;5.78;5.57;;;;;;;-143.83;100.00;62900.06;5032401;28;20025;-62
2022/06/27 09:41:58;;;;;;;5.78;5.57;;;;;;;-143.83;100.00;62900.06;5032723;28;20077;-62
2022/06/27 09:44:42;;;;;;;5.57;5.38;;;;;;;-143.83;100.00;62900.06;5032475;28;20047;-62
2022/06/27 09:47:19;;;;;;;5.65;5.45;;;;;;;-143.83;100.00;62900.06;5032426;28;20492;-62
2022/06/27 09:49:47;;;;;;;5.60;5.40;;;;;;;-143.83;100.00;62900.06;5032204;28;20057;-62
2022/06/27 09:52:18;;;;;;;5.50;5.30;;;;;;;-143.83;100.00;62900.06;5031277;28;20400;-61
2022/06/27 09:54:46;;;;;;;5.50;5.30;;;;;;;-143.83;100.00;62900.06;5032080;28;20034;-62
2022/06/27 09:57:13;;;;;;;5.50;5.30;;;;;;;-143.83;100.00;62900.06;5018778;28;20039;-62
2022/06/27 09:59:39;;;;;;;5.40;5.20;;;;;;;-143.83;100.00;62900.06;5030734;28;20025;-62
2022/06/27 10:02:06;;;;;;;5.47;5.28;;;;;;;-143.83;100.00;62900.06;5018700;28;20029;-61
2022/06/27 10:04:32;;;;;;;5.65;5.45;;;;;;;-143.83;100.00;62900.06;5032407;28;20052;-61
2022/06/27 10:07:02;;;;;;;5.50;5.30;;;;;;;-143.83;100.00;62900.06;5024857;28;20026;-61
2022/06/27 10:09:30;;;;;;;5.50;5.30;;;;;;;-143.83;100.00;62900.06;5026171;28;20062;-62
2022/06/27 10:12:23;;;;;;;5.40;5.20;;;;;;;-143.83;100.00;62900.06;5031876;28;20041;-61
2022/06/27 10:15:11;;;;;;;5.50;5.30;;;;;;;-143.83;100.00;62900.06;5028167;28;20519;-61
2022/06/27 10:17:41;;;;;;;5.30;5.10;;;;;;;-143.83;100.00;62900.06;5032026;28;20084;-62
2022/06/27 10:20:12;;;;;;;5.43;5.22;;;;;;;-143.83;100.00;62900.06;5031826;28;20484;-61
2022/06/27 10:22:38;;;;;;;5.50;5.30;;;;;;;-143.83;100.00;62900.06;5031421;28;20029;-62
2022/06/27 10:25:25;;;;;;;5.40;5.20;;;;;;;-143.83;100.00;62900.06;5031759;28;20052;-61
2022/06/27 10:28:16;;;;;;;5.45;5.25;;;;;;;-143.83;100.00;62900.06;5030728;28;20036;-61
2022/06/27 10:31:00;;;;;;;5.45;5.25;;;;;;;-143.83;100.00;62900.06;5031567;28;20481;-62
2022/06/27 10:33:25;;;;;;;5.53;5.32;;;;;;;-143.83;100.00;62900.06;5031621;28;20036;-62
2022/06/27 10:35:58;;;;;;;5.50;5.30;;;;;;;-143.83;100.00;62900.06;5031261;28;20393;-61
2022/06/27 10:38:42;;;;;;;5.60;5.40;;;;;;;-143.83;100.00;62900.06;5031757;28;20029;-62
2022/06/27 10:41:33;;;;;;;5.50;5.30;;;;;;;-143.83;100.00;62900.06;5031501;28;20013;-62
2022/06/27 10:44:03;;;;;;;5.32;5.13;;;;;;;-143.83;100.00;62900.06;5030381;28;20041;-62
2022/06/27 10:46:28;;;;;;;5.40;5.20;;;;;;;-143.83;100.00;62900.06;5017681;28;20032;-62
2022/06/27 10:48:56;;;;;;;5.50;5.30;;;;;;;-143.83;100.00;62900.06;5031332;28;20022;-61
2022/06/27 10:51:24;;;;;;;5.40;5.20;;;;;;;-143.83;100.00;62900.06;5030965;28;20424;-62
2022/06/27 10:54:14;;;;;;;5.50;5.30;;;;;;;-143.83;100.00;62900.06;5031166;28;20057;-62
2022/06/27 10:56:42;;;;;;;5.50;5.30;;;;;;;-143.83;100.00;62900.06;5024170;28;20383;-62
2022/06/27 10:59:14;;;;;;;5.35;5.15;;;;;;;-143.83;100.00;62900.06;5016420;28;20498;-62
2022/06/27 11:01:52;;;;;;;5.50;5.30;;;;;;;-143.83;100.00;62900.06;5030591;28;20048;-62
2022/06/27 11:04:28;;;;;;;5.43;5.22;;;;;;;-143.83;100.00;62900.06;5018579;28;20040;-61
2022/06/27 11:06:56;;;;;;;5.70;5.50;;;;;;;-143.83;100.00;62900.06;5031121;28;20487;-63
2022/06/27 11:09:44;;;;;;;5.60;5.40;;;;;;;-143.83;100.00;62900.06;5026659;28;20024;-63
2022/06/27 11:12:12;;;;;;;5.60;5.40;;;;;;;-143.83;100.00;62900.06;5031460;28;20113;-61
2022/06/27 11:14:51;;;;;;;5.70;5.50;;;;;;;-143.83;100.00;62900.06;5031506;28;20396;-61
2022/06/27 11:17:46;;;;;;;5.57;5.38;;;;;;;-143.83;100.00;62900.06;5030040;28;20547;-62
2022/06/27 11:20:18;;;;;;;5.68;5.47;;;;;;;-143.83;100.00;62900.06;5010792;28;20326;-62